Impacts TAF Board INFO
FOR SITUATIONAL AWARENESS. NOT TO BE USED FOR FLIGHT PLANNING PURPOSES.
IDs:

KPDX - Portland Intl Arpt, OR, US

Issued at 0910 UTC 23 May 2018
Updated at 1103 UTC 23 May 2018
Potential Impact None Slight Moderate High
Time1053Z 23/12Z 23/13Z 23/14Z 23/15Z 23/16Z 23/17Z 23/18Z 23/19Z 23/20Z 23/21Z 23/22Z 23/23Z 24/00Z>>
Type OBS PRVL PRVL PRVL PRVL PRVL PRVL PRVL PRVL PRVL PRVL PRVL PRVL PRVL
VIS 10 >6 >6 >6 >6 >6 >6 >6 >6 >6 >6 >6 >6 >6
CIG -- -- -- -- -- -- -- -- -- -- -- 120 120 120
Cover CLR SKC SCT SCT SCT SCT SCT SCT SCT SCT SCT BKN BKN BKN
FltCat VFR VFR VFR VFR VFR VFR VFR VFR VFR VFR VFR VFR VFR VFR
WX -- -- -- -- -- -- -- -- -- -- -- -- -- --
WDir 360 290 290 290 290 290 300 300 300 300 300 300 300 300
WSpd 4 6 5 5 5 5 7 7 7 7 7 9 9 9
WGst -- -- -- -- -- -- -- -- -- -- -- -- -- --

Raw TAF
KPDX 230910Z 2309/2406 29006KT P6SM SKC
  FM231300 29005KT P6SM SCT015
  FM231700 30007KT P6SM SCT060
  FM232200 30009KT P6SM SCT060 BKN120


Raw METAR
KPDX 231053Z 36004KT 10SM CLR 16/11 A2979 RMK AO2 SLP086 T01610106
KPDX 230953Z 00000KT 10SM CLR 17/11 A2979 RMK AO2 SLP085 T01670111
KPDX 230853Z 00000KT 10SM CLR 17/12 A2978 RMK AO2 SLP083 T01720117 51002

METAR Board
Radar Display
Forecast Discussion

FOR SITUATIONAL AWARENESS. NOT TO BE USED FOR FLIGHT PLANNING PURPOSES.